Observation data for Floydada on 10/17/2019      Previous  Date       Current Mesonet Observations  Soil Data  Daily Summary Page  Observations in Plain Language
KFLS 170500Z 19010KT 11/M01 A3011 RMK A01 T01101013  RH  043%=      5-min Rain = 0
KFLS 170505Z 19010KT 11/M01 A3011 RMK A01 T01081013  RH  043%=      5-min Rain = 0
KFLS 170510Z 19010KT 11/M01 A301 RMK A01 T01051012  RH  044%=      5-min Rain = 0
KFLS 170515Z 19011KT 11/M01 A301 RMK A01 T01091013  RH  043%=      5-min Rain = 0
KFLS 170520Z 19011KT 11/M01 A301 RMK A01 T01101014  RH  043%=      5-min Rain = 0
KFLS 170525Z 19010KT 11/M01 A301 RMK A01 T01101014  RH  042%=      5-min Rain = 0
KFLS 170530Z 19011KT 11/M01 A301 RMK A01 T01081014  RH  043%=      5-min Rain = 0
KFLS 170535Z 19011KT 11/M01 A301 RMK A01 T01101014  RH  043%=      5-min Rain = 0
KFLS 170540Z 20011KT 11/M01 A301 RMK A01 T01071013  RH  044%=      5-min Rain = 0
KFLS 170545Z 20010KT 10/M01 A301 RMK A01 T01031012  RH  045%=      5-min Rain = 0
KFLS 170550Z 20010KT 10/M01 A3009 RMK A01 T00991012  RH  046%=      5-min Rain = 0
KFLS 170555Z 20010KT 10/M01 A3009 RMK A01 T00981011  RH  047%=      5-min Rain = 0
KFLS 170600Z 19010KT 10/M01 A3009 RMK A01 T00971011  RH  047%=      5-min Rain = 0
KFLS 170605Z 20010KT 10/M01 A3009 RMK A01 T00971011  RH  048%=      5-min Rain = 0
KFLS 170610Z 20010KT 10/M01 A3009 RMK A01 T00971010  RH  048%=      5-min Rain = 0
KFLS 170615Z 20010KT 10/M01 A3009 RMK A01 T00961010  RH  048%=      5-min Rain = 0
KFLS 170620Z 19010KT 10/M01 A3009 RMK A01 T00951010  RH  048%=      5-min Rain = 0
KFLS 170625Z 20010KT 10/M01 A3009 RMK A01 T00951010  RH  048%=      5-min Rain = 0
KFLS 170630Z 20009KT 09/M01 A3009 RMK A01 T00931010  RH  049%=      5-min Rain = 0
KFLS 170635Z 21009KT 09/M01 A3009 RMK A01 T00931010  RH  049%=      5-min Rain = 0
KFLS 170640Z 21008KT 09/M01 A3009 RMK A01 T00911011  RH  049%=      5-min Rain = 0
KFLS 170645Z 21007KT 09/M01 A3009 RMK A01 T00891011  RH  050%=      5-min Rain = 0
KFLS 170650Z 21007KT 09/M01 A3009 RMK A01 T00881012  RH  050%=      5-min Rain = 0
KFLS 170655Z 22007KT 09/M01 A3009 RMK A01 T00881013  RH  050%=      5-min Rain = 0
KFLS 170700Z 21009KT 09/M01 A3008 RMK A01 T00891013  RH  049%=      5-min Rain = 0
KFLS 170705Z 21008KT 09/M01 A3008 RMK A01 T00881012  RH  050%=      5-min Rain = 0
KFLS 170710Z 22008KT 09/M01 A3008 RMK A01 T00901013  RH  049%=      5-min Rain = 0
KFLS 170715Z 22009KT 09/M01 A3008 RMK A01 T00921014  RH  048%=      5-min Rain = 0
KFLS 170720Z 22009KT 09/M01 A3008 RMK A01 T00931014  RH  048%=      5-min Rain = 0
KFLS 170725Z 22008KT 09/M01 A3009 RMK A01 T00911014  RH  048%=      5-min Rain = 0
KFLS 170730Z 22008KT 09/M01 A3009 RMK A01 T00881013  RH  050%=      5-min Rain = 0
KFLS 170735Z 22008KT 09/M01 A3009 RMK A01 T00851012  RH  051%=      5-min Rain = 0
KFLS 170740Z 22008KT 08/M01 A3008 RMK A01 T00801010  RH  053%=      5-min Rain = 0
KFLS 170745Z 22008KT 08/M01 A3008 RMK A01 T00791009  RH  054%=      5-min Rain = 0
KFLS 170750Z 22008KT 08/M01 A3008 RMK A01 T00781009  RH  054%=      5-min Rain = 0
KFLS 170755Z 22009KT 08/M01 A3008 RMK A01 T00801009  RH  054%=      5-min Rain = 0
KFLS 170800Z 22009KT 08/M01 A3008 RMK A01 T00811010  RH  053%=      5-min Rain = 0
KFLS 170805Z 22008KT 08/M01 A3008 RMK A01 T00811010  RH  053%=      5-min Rain = 0
KFLS 170810Z 22008KT 08/M01 A3008 RMK A01 T00791009  RH  054%=      5-min Rain = 0
KFLS 170815Z 22008KT 08/M01 A3008 RMK A01 T00781009  RH  055%=      5-min Rain = 0
KFLS 170820Z 23008KT 08/M01 A3008 RMK A01 T00781009  RH  055%=      5-min Rain = 0
KFLS 170825Z 23008KT 08/M01 A3008 RMK A01 T00771009  RH  055%=      5-min Rain = 0
KFLS 170830Z 22007KT 07/M01 A3008 RMK A01 T00741009  RH  056%=      5-min Rain = 0
KFLS 170835Z 22008KT 08/M01 A3008 RMK A01 T00751008  RH  057%=      5-min Rain = 0
KFLS 170840Z 22008KT 08/M01 A3008 RMK A01 T00761007  RH  056%=      5-min Rain = 0
KFLS 170845Z 23008KT 08/M01 A3007 RMK A01 T00771006  RH  056%=      5-min Rain = 0
KFLS 170850Z 24008KT 07/M01 A3007 RMK A01 T00741005  RH  058%=      5-min Rain = 0
KFLS 170855Z 24008KT 07/M01 A3007 RMK A01 T00681005  RH  060%=      5-min Rain = 0
KFLS 170900Z 24008KT 07/M01 A3007 RMK A01 T00671005  RH  061%=      5-min Rain = 0
KFLS 170905Z 24009KT 07/M01 A3007 RMK A01 T00681006  RH  060%=      5-min Rain = 0
KFLS 170910Z 23009KT 07/M01 A3006 RMK A01 T00701006  RH  059%=      5-min Rain = 0
KFLS 170915Z 24009KT 07/M01 A3006 RMK A01 T00731007  RH  058%=      5-min Rain = 0
KFLS 170920Z 24009KT 07/M01 A3006 RMK A01 T00681006  RH  060%=      5-min Rain = 0
KFLS 170925Z 23009KT 07/M01 A3006 RMK A01 T00711007  RH  058%=      5-min Rain = 0
KFLS 170930Z 23009KT 08/M01 A3006 RMK A01 T00761008  RH  056%=      5-min Rain = 0
KFLS 170935Z 23008KT 08/M01 A3006 RMK A01 T00761008  RH  056%=      5-min Rain = 0
KFLS 170940Z 24008KT 08/M01 A3006 RMK A01 T00761009  RH  056%=      5-min Rain = 0
KFLS 170945Z 24008KT 07/M01 A3006 RMK A01 T00721008  RH  057%=      5-min Rain = 0
KFLS 170950Z 24008KT 07/M01 A3006 RMK A01 T00691008  RH  059%=      5-min Rain = 0
KFLS 170955Z 24007KT 06/M01 A3006 RMK A01 T00621007  RH  062%=      5-min Rain = 0
KFLS 171000Z 24007KT 06/M01 A3005 RMK A01 T00551007  RH  065%=      5-min Rain = 0
KFLS 171005Z 25007KT 05/M01 A3005 RMK A01 T00451008  RH  070%=      5-min Rain = 0
KFLS 171010Z 25007KT 04/M01 A3005 RMK A01 T00401008  RH  072%=      5-min Rain = 0
KFLS 171015Z 25007KT 04/M01 A3005 RMK A01 T00381008  RH  073%=      5-min Rain = 0
KFLS 171020Z 25007KT 03/M01 A3005 RMK A01 T00341008  RH  075%=      5-min Rain = 0
KFLS 171025Z 24007KT 04/M01 A3005 RMK A01 T00391007  RH  073%=      5-min Rain = 0
KFLS 171030Z 24008KT 04/M01 A3005 RMK A01 T00431008  RH  070%=      5-min Rain = 0
KFLS 171035Z 25007KT 04/M01 A3005 RMK A01 T00391008  RH  072%=      5-min Rain = 0
KFLS 171040Z 25006KT 04/M01 A3005 RMK A01 T00351008  RH  075%=      5-min Rain = 0
KFLS 171045Z 24006KT 04/M01 A3005 RMK A01 T00391007  RH  073%=      5-min Rain = 0
KFLS 171050Z 22006KT 05/M01 A3005 RMK A01 T00471007  RH  069%=      5-min Rain = 0
KFLS 171055Z 22006KT 05/M01 A3005 RMK A01 T00521008  RH  066%=      5-min Rain = 0
KFLS 171100Z 22006KT 06/M01 A3005 RMK A01 T00551008  RH  064%=      5-min Rain = 0
KFLS 171105Z 22007KT 06/M01 A3005 RMK A01 T00561009  RH  064%=      5-min Rain = 0
KFLS 171110Z 22007KT 06/M01 A3005 RMK A01 T00581008  RH  063%=      5-min Rain = 0
KFLS 171115Z 22006KT 06/M01 A3005 RMK A01 T00601008  RH  062%=      5-min Rain = 0
KFLS 171120Z 22006KT 06/M01 A3005 RMK A01 T00611007  RH  062%=      5-min Rain = 0
KFLS 171125Z 23006KT 06/M01 A3005 RMK A01 T00591008  RH  063%=      5-min Rain = 0
KFLS 171130Z 22006KT 06/M01 A3005 RMK A01 T00601008  RH  062%=      5-min Rain = 0
KFLS 171135Z 21006KT 06/M01 A3005 RMK A01 T00611008  RH  062%=      5-min Rain = 0
KFLS 171140Z 21007KT 06/M01 A3004 RMK A01 T00581008  RH  063%=      5-min Rain = 0
KFLS 171145Z 21006KT 06/M01 A3004 RMK A01 T00551008  RH  064%=      5-min Rain = 0
KFLS 171150Z 22006KT 06/M01 A3004 RMK A01 T00631008  RH  061%=      5-min Rain = 0
KFLS 171155Z 21007KT 07/M01 A3004 RMK A01 T00661008  RH  060%=      5-min Rain = 0
KFLS 171200Z 21007KT 07/M01 A3004 RMK A01 T00661008  RH  060%=      5-min Rain = 0
KFLS 171205Z 22007KT 07/M01 A3004 RMK A01 T00721008  RH  057%=      5-min Rain = 0
KFLS 171210Z 23008KT 08/M01 A3004 RMK A01 T00751008  RH  056%=      5-min Rain = 0
KFLS 171215Z 22007KT 07/M01 A3004 RMK A01 T00711007  RH  058%=      5-min Rain = 0
KFLS 171220Z 22007KT 07/M01 A3004 RMK A01 T00671006  RH  060%=      5-min Rain = 0
KFLS 171225Z 21007KT 06/M01 A3004 RMK A01 T00631005  RH  062%=      5-min Rain = 0
KFLS 171230Z 21008KT 06/M00 A3004 RMK A01 T00611004  RH  064%=      5-min Rain = 0
KFLS 171235Z 21009KT 06/M00 A3004 RMK A01 T00601003  RH  065%=      5-min Rain = 0
KFLS 171240Z 22008KT 06/M00 A3004 RMK A01 T00621004  RH  063%=      5-min Rain = 0
KFLS 171245Z 22008KT 06/M01 A3004 RMK A01 T00641005  RH  062%=      5-min Rain = 0
KFLS 171250Z 22008KT 07/M01 A3004 RMK A01 T00671005  RH  061%=      5-min Rain = 0
KFLS 171255Z 24006KT 07/M00 A3004 RMK A01 T00651004  RH  062%=      5-min Rain = 0
KFLS 171300Z 25005KT 05/M00 A3004 RMK A01 T00491003  RH  070%=      5-min Rain = 0
KFLS 171305Z 24005KT 04/M01 A3004 RMK A01 T00371005  RH  075%=      5-min Rain = 0
KFLS 171310Z 24006KT 03/M01 A3004 RMK A01 T00301007  RH  078%=      5-min Rain = 0
KFLS 171315Z 23006KT 03/M00 A3004 RMK A01 T00321004  RH  078%=      5-min Rain = 0
KFLS 171320Z 22008KT 06/M00 A3004 RMK A01 T00561001  RH  068%=      5-min Rain = 0
KFLS 171325Z 22008KT 07/M00 A3004 RMK A01 T00711001  RH  061%=      5-min Rain = 0
KFLS 171330Z 22008KT 08/M00 A3004 RMK A01 T00791001  RH  058%=      5-min Rain = 0
KFLS 171335Z 22008KT 09/00 A3004 RMK A01 T008500-0  RH  056%=      5-min Rain = 0
KFLS 171340Z 22008KT 09/00 A3004 RMK A01 T00890001  RH  055%=      5-min Rain = 0
KFLS 171345Z 22008KT 09/00 A3004 RMK A01 T00900001  RH  054%=      5-min Rain = 0
KFLS 171350Z 23007KT 09/00 A3005 RMK A01 T00910003  RH  055%=      5-min Rain = 0
KFLS 171355Z 22007KT 09/01 A3005 RMK A01 T00940006  RH  055%=      5-min Rain = 0
KFLS 171400Z 21008KT 10/01 A3005 RMK A01 T00990011  RH  055%=      5-min Rain = 0
KFLS 171405Z 22008KT 10/01 A3005 RMK A01 T01030013  RH  055%=      5-min Rain = 0
KFLS 171410Z 23008KT 11/01 A3005 RMK A01 T01070014  RH  053%=      5-min Rain = 0
KFLS 171415Z 23008KT 11/02 A3006 RMK A01 T01100016  RH  053%=      5-min Rain = 0
KFLS 171420Z 23008KT 12/02 A3006 RMK A01 T01160019  RH  052%=      5-min Rain = 0
KFLS 171425Z 23009KT 12/02 A3006 RMK A01 T01190020  RH  051%=      5-min Rain = 0
KFLS 171430Z 23009KT 12/02 A3006 RMK A01 T01240023  RH  051%=      5-min Rain = 0
KFLS 171435Z 23009KT 13/03 A3006 RMK A01 T01300026  RH  050%=      5-min Rain = 0
KFLS 171440Z 23010KT 13/03 A3005 RMK A01 T01340029  RH  050%=      5-min Rain = 0
KFLS 171445Z 23012KT 14/03 A3005 RMK A01 T01400032  RH  049%=      5-min Rain = 0
KFLS 171450Z 23013KT 14/03 A3005 RMK A01 T01420033  RH  048%=      5-min Rain = 0
KFLS 171455Z 23013G18KT 15/03 A3005 RMK A01 T01480032  RH  046%=      5-min Rain = 0
KFLS 171500Z 24014KT 15/03 A3005 RMK A01 T01520030  RH  044%=      5-min Rain = 0
KFLS 171505Z 24013KT 16/03 A3005 RMK A01 T01590031  RH  043%=      5-min Rain = 0
KFLS 171510Z 24014KT 16/03 A3006 RMK A01 T01620029  RH  041%=      5-min Rain = 0
KFLS 171515Z 24014G20KT 17/03 A3006 RMK A01 T01660030  RH  040%=      5-min Rain = 0
KFLS 171520Z 23014G20KT 17/03 A3005 RMK A01 T01690030  RH  040%=      5-min Rain = 0
KFLS 171525Z 23016G21KT 17/03 A3005 RMK A01 T01700026  RH  038%=      5-min Rain = 0
KFLS 171530Z 23015G20KT 17/03 A3005 RMK A01 T01720026  RH  038%=      5-min Rain = 0
KFLS 171535Z 23015KT 18/03 A3005 RMK A01 T01760025  RH  037%=      5-min Rain = 0
KFLS 171540Z 23015KT 18/02 A3005 RMK A01 T01810024  RH  035%=      5-min Rain = 0
KFLS 171545Z 23015G20KT 18/03 A3005 RMK A01 T01830026  RH  036%=      5-min Rain = 0
KFLS 171550Z 23016G21KT 19/03 A3004 RMK A01 T01850027  RH  035%=      5-min Rain = 0
KFLS 171555Z 23016KT 19/03 A3004 RMK A01 T01850025  RH  035%=      5-min Rain = 0
KFLS 171600Z 24016KT 19/02 A3004 RMK A01 T01860023  RH  034%=      5-min Rain = 0
KFLS 171605Z 24016G21KT 19/02 A3004 RMK A01 T01900022  RH  033%=      5-min Rain = 0
KFLS 171610Z 23015KT 19/02 A3004 RMK A01 T01930021  RH  032%=      5-min Rain = 0
KFLS 171615Z 23013KT 20/02 A3004 RMK A01 T01950022  RH  032%=      5-min Rain = 0
KFLS 171620Z 23014G19KT 20/01 A3004 RMK A01 T01990014  RH  029%=      5-min Rain = 0
KFLS 171625Z 23015KT 20/01 A3003 RMK A01 T01990013  RH  029%=      5-min Rain = 0
KFLS 171630Z 23013KT 20/02 A3003 RMK A01 T02040019  RH  030%=      5-min Rain = 0
KFLS 171635Z 23013KT 21/02 A3003 RMK A01 T02060024  RH  030%=      5-min Rain = 0
KFLS 171640Z 21013KT 21/02 A3003 RMK A01 T02090023  RH  029%=      5-min Rain = 0
KFLS 171645Z 21014G19KT 21/02 A3003 RMK A01 T02110024  RH  030%=      5-min Rain = 0
KFLS 171650Z 22012KT 21/03 A3002 RMK A01 T02140025  RH  029%=      5-min Rain = 0
KFLS 171655Z 21014KT 22/03 A3002 RMK A01 T02170029  RH  029%=      5-min Rain = 0
KFLS 171700Z 21013G18KT 22/03 A3002 RMK A01 T02170029  RH  029%=      5-min Rain = 0
KFLS 171705Z 21014KT 22/03 A3002 RMK A01 T02160029  RH  030%=      5-min Rain = 0
KFLS 171710Z 21013KT 22/03 A3001 RMK A01 T02170029  RH  029%=      5-min Rain = 0
KFLS 171715Z 21012KT 22/03 A3001 RMK A01 T02190031  RH  029%=      5-min Rain = 0
KFLS 171720Z 21012KT 22/03 A3001 RMK A01 T02230030  RH  029%=      5-min Rain = 0
KFLS 171725Z 21013KT 23/03 A3001 RMK A01 T02250030  RH  028%=      5-min Rain = 0
KFLS 171730Z 19013KT 23/03 A3001 RMK A01 T02260028  RH  028%=      5-min Rain = 0
KFLS 171735Z 20014KT 23/03 A3001 RMK A01 T02270026  RH  027%=      5-min Rain = 0
KFLS 171740Z 20012KT 23/03 A3001 RMK A01 T02300028  RH  027%=      5-min Rain = 0
KFLS 171745Z 19013G18KT 23/03 A30 RMK A01 T02330028  RH  026%=      5-min Rain = 0
KFLS 171750Z 20012KT 23/03 A30 RMK A01 T02340027  RH  026%=      5-min Rain = 0
KFLS 171755Z 20012KT 23/03 A2999 RMK A01 T02340028  RH  026%=      5-min Rain = 0
KFLS 171800Z 20012G18KT 24/03 A2999 RMK A01 T02360026  RH  026%=      5-min Rain = 0
KFLS 171805Z 20013KT 24/02 A2999 RMK A01 T02390021  RH  024%=      5-min Rain = 0
KFLS 171810Z 20013KT 24/02 A2999 RMK A01 T02390019  RH  024%=      5-min Rain = 0
KFLS 171815Z 21012G17KT 24/02 A2999 RMK A01 T02400021  RH  024%=      5-min Rain = 0
KFLS 171820Z 21012G17KT 24/02 A2998 RMK A01 T02410017  RH  023%=      5-min Rain = 0
KFLS 171825Z 20012KT 24/02 A2998 RMK A01 T02430016  RH  023%=      5-min Rain = 0
KFLS 171830Z 21011KT 24/02 A2998 RMK A01 T02440016  RH  023%=      5-min Rain = 0
KFLS 171835Z 20011G16KT 25/02 A2998 RMK A01 T02490016  RH  022%=      5-min Rain = 0
KFLS 171840Z 19013G19KT 25/02 A2997 RMK A01 T02470017  RH  022%=      5-min Rain = 0
KFLS 171845Z 20011G16KT 25/02 A2997 RMK A01 T02490015  RH  022%=      5-min Rain = 0
KFLS 171850Z 20010G15KT 25/01 A2997 RMK A01 T02500011  RH  021%=      5-min Rain = 0
KFLS 171855Z 21011G16KT 25/01 A2996 RMK A01 T02510010  RH  021%=      5-min Rain = 0
KFLS 171900Z 20009KT 25/01 A2996 RMK A01 T02510012  RH  021%=      5-min Rain = 0
KFLS 171905Z 21012G18KT 25/01 A2996 RMK A01 T02540010  RH  021%=      5-min Rain = 0
KFLS 171910Z 20013G18KT 25/01 A2996 RMK A01 T02510011  RH  021%=      5-min Rain = 0
KFLS 171915Z 21011G16KT 25/01 A2995 RMK A01 T02500011  RH  021%=      5-min Rain = 0
KFLS 171920Z 21013G18KT 25/01 A2995 RMK A01 T02530007  RH  020%=      5-min Rain = 0
KFLS 171925Z 20013KT 25/01 A2995 RMK A01 T02520005  RH  020%=      5-min Rain = 0
KFLS 171930Z 20012G19KT 25/01 A2994 RMK A01 T02540008  RH  020%=      5-min Rain = 0
KFLS 171935Z 20011G17KT 26/01 A2994 RMK A01 T02550005  RH  020%=      5-min Rain = 0
KFLS 171940Z 21011G20KT 26/01 A2994 RMK A01 T02580011  RH  020%=      5-min Rain = 0
KFLS 171945Z 20012G20KT 26/01 A2993 RMK A01 T02590010  RH  020%=      5-min Rain = 0
KFLS 171950Z 19012G19KT 26/01 A2993 RMK A01 T02610013  RH  020%=      5-min Rain = 0
KFLS 171955Z 21012G18KT 26/01 A2993 RMK A01 T02570009  RH  020%=      5-min Rain = 0
KFLS 172000Z 19011G16KT 26/01 A2992 RMK A01 T02610009  RH  020%=      5-min Rain = 0
KFLS 172005Z 19013G19KT 26/01 A2992 RMK A01 T02590006  RH  019%=      5-min Rain = 0
KFLS 172010Z 19011G16KT 26/01 A2992 RMK A01 T02580007  RH  020%=      5-min Rain = 0
KFLS 172015Z 19012KT 26/01 A2992 RMK A01 T02560006  RH  020%=      5-min Rain = 0
KFLS 172020Z 19013G19KT 26/00 A2992 RMK A01 T02610003  RH  019%=      5-min Rain = 0
KFLS 172025Z 21012KT 26/00 A2992 RMK A01 T02590002  RH  019%=      5-min Rain = 0
KFLS 172030Z 20012KT 26/00 A2991 RMK A01 T02610003  RH  019%=      5-min Rain = 0
KFLS 172035Z 19012KT 26/00 A2991 RMK A01 T02610003  RH  019%=      5-min Rain = 0
KFLS 172040Z 18011G16KT 26/01 A2991 RMK A01 T02610005  RH  019%=      5-min Rain = 0
KFLS 172045Z 18014G19KT 26/00 A2991 RMK A01 T02620003  RH  019%=      5-min Rain = 0
KFLS 172050Z 20012KT 26/00 A2991 RMK A01 T02620004  RH  019%=      5-min Rain = 0
KFLS 172055Z 19014KT 26/01 A299 RMK A01 T02600005  RH  019%=      5-min Rain = 0
KFLS 172100Z 21012KT 26/01 A299 RMK A01 T02600005  RH  019%=      5-min Rain = 0
KFLS 172105Z 18013KT 26/01 A299 RMK A01 T02630005  RH  019%=      5-min Rain = 0
KFLS 172110Z 18011KT 26/01 A299 RMK A01 T02600007  RH  019%=      5-min Rain = 0
KFLS 172115Z 20012G17KT 26/01 A299 RMK A01 T02600005  RH  019%=      5-min Rain = 0
KFLS 172120Z 19011KT 26/01 A299 RMK A01 T02620005  RH  019%=      5-min Rain = 0
KFLS 172125Z 19012G17KT 27/01 A299 RMK A01 T02650005  RH  018%=      5-min Rain = 0
KFLS 172130Z 19013KT 26/00 A2989 RMK A01 T02620003  RH  019%=      5-min Rain = 0
KFLS 172135Z 18012G18KT 26/01 A2989 RMK A01 T02600005  RH  019%=      5-min Rain = 0
KFLS 172140Z 18015G21KT 26/00 A2989 RMK A01 T02590004  RH  019%=      5-min Rain = 0
KFLS 172145Z 18013G19KT 26/00 A2989 RMK A01 T02630004  RH  019%=      5-min Rain = 0
KFLS 172150Z 19014G19KT 26/00 A2989 RMK A01 T02600004  RH  019%=      5-min Rain = 0
KFLS 172155Z 18013KT 26/01 A2989 RMK A01 T02600006  RH  019%=      5-min Rain = 0
KFLS 172200Z 18013KT 26/01 A2989 RMK A01 T02610010  RH  020%=      5-min Rain = 0
KFLS 172205Z 18014KT 26/01 A2988 RMK A01 T02580012  RH  020%=      5-min Rain = 0
KFLS 172210Z 19013G18KT 26/01 A2988 RMK A01 T02600010  RH  020%=      5-min Rain = 0
KFLS 172215Z 19013KT 26/01 A2988 RMK A01 T02570009  RH  020%=      5-min Rain = 0
KFLS 172220Z 18013G18KT 26/01 A2988 RMK A01 T02580013  RH  020%=      5-min Rain = 0
KFLS 172225Z 18015KT 26/01 A2988 RMK A01 T02550012  RH  021%=      5-min Rain = 0
KFLS 172230Z 18014KT 25/01 A2988 RMK A01 T02500012  RH  021%=      5-min Rain = 0
KFLS 172235Z 19014KT 25/02 A2988 RMK A01 T02490015  RH  022%=      5-min Rain = 0
KFLS 172240Z 18014G19KT 25/02 A2987 RMK A01 T02530018  RH  022%=      5-min Rain = 0
KFLS 172245Z 18014G19KT 26/02 A2987 RMK A01 T02560018  RH  021%=      5-min Rain = 0
KFLS 172250Z 18014KT 26/02 A2987 RMK A01 T02550017  RH  022%=      5-min Rain = 0
KFLS 172255Z 18014KT 25/02 A2987 RMK A01 T02520017  RH  022%=      5-min Rain = 0
KFLS 172300Z 18012KT 25/02 A2987 RMK A01 T02500021  RH  023%=      5-min Rain = 0
KFLS 172305Z 17013KT 25/02 A2987 RMK A01 T02490022  RH  023%=      5-min Rain = 0
KFLS 172310Z 17011KT 25/03 A2987 RMK A01 T02490025  RH  023%=      5-min Rain = 0
KFLS 172315Z 18013G18KT 25/02 A2987 RMK A01 T02470024  RH  024%=      5-min Rain = 0
KFLS 172320Z 17014KT 25/02 A2987 RMK A01 T02460021  RH  023%=      5-min Rain = 0
KFLS 172325Z 17012G17KT 24/03 A2986 RMK A01 T02430026  RH  025%=      5-min Rain = 0
KFLS 172330Z 18014KT 24/02 A2986 RMK A01 T02410023  RH  024%=      5-min Rain = 0
KFLS 172335Z 17012G17KT 24/02 A2986 RMK A01 T02390024  RH  025%=      5-min Rain = 0
KFLS 172340Z 18012KT 24/03 A2986 RMK A01 T02350025  RH  026%=      5-min Rain = 0
KFLS 172345Z 18011KT 23/03 A2986 RMK A01 T02310027  RH  027%=      5-min Rain = 0
KFLS 172350Z 17010KT 23/03 A2986 RMK A01 T02280028  RH  027%=      5-min Rain = 0
KFLS 172355Z 17011KT 22/03 A2986 RMK A01 T02240029  RH  028%=      5-min Rain = 0
KFLS 180000Z 17011KT 22/03 A2986 RMK A01 T02230030  RH  028%=      5-min Rain = 0
KFLS 180005Z 17009KT 22/03 A2986 RMK A01 T02170031  RH  030%=      5-min Rain = 0
KFLS 180010Z 17009KT 21/03 A2986 RMK A01 T02130032  RH  031%=      5-min Rain = 0
KFLS 180015Z 16008KT 21/03 A2986 RMK A01 T02100034  RH  032%=      5-min Rain = 0
KFLS 180020Z 16008KT 20/04 A2986 RMK A01 T02030035  RH  033%=      5-min Rain = 0
KFLS 180025Z 16008KT 20/04 A2986 RMK A01 T01990037  RH  035%=      5-min Rain = 0
KFLS 180030Z 16008KT 20/04 A2985 RMK A01 T01960038  RH  036%=      5-min Rain = 0
KFLS 180035Z 16007KT 19/04 A2985 RMK A01 T01910039  RH  037%=      5-min Rain = 0
KFLS 180040Z 16007KT 19/04 A2986 RMK A01 T01850039  RH  039%=      5-min Rain = 0
KFLS 180045Z 16007KT 18/04 A2986 RMK A01 T01830039  RH  039%=      5-min Rain = 0
KFLS 180050Z 16008KT 18/04 A2986 RMK A01 T01800040  RH  040%=      5-min Rain = 0
KFLS 180055Z 15008KT 18/04 A2986 RMK A01 T01800042  RH  040%=      5-min Rain = 0
KFLS 180100Z 15009KT 18/04 A2985 RMK A01 T01780044  RH  041%=      5-min Rain = 0
KFLS 180105Z 15008KT 18/05 A2985 RMK A01 T01760045  RH  042%=      5-min Rain = 0
KFLS 180110Z 15008KT 17/05 A2985 RMK A01 T01720046  RH  044%=      5-min Rain = 0
KFLS 180115Z 15008KT 17/05 A2985 RMK A01 T01720048  RH  044%=      5-min Rain = 0
KFLS 180120Z 15008KT 17/05 A2985 RMK A01 T01720047  RH  044%=      5-min Rain = 0
KFLS 180125Z 15008KT 17/05 A2985 RMK A01 T01700047  RH  044%=      5-min Rain = 0
KFLS 180130Z 15008KT 17/05 A2985 RMK A01 T01680047  RH  045%=      5-min Rain = 0
KFLS 180135Z 16008KT 17/05 A2985 RMK A01 T01670047  RH  046%=      5-min Rain = 0
KFLS 180140Z 16008KT 17/05 A2986 RMK A01 T01650047  RH  046%=      5-min Rain = 0
KFLS 180145Z 16007KT 16/05 A2986 RMK A01 T01640047  RH  047%=      5-min Rain = 0
KFLS 180150Z 16008KT 16/05 A2986 RMK A01 T01610048  RH  048%=      5-min Rain = 0
KFLS 180155Z 16008KT 16/05 A2986 RMK A01 T01630049  RH  047%=      5-min Rain = 0
KFLS 180200Z 15007KT 16/05 A2986 RMK A01 T01620048  RH  047%=      5-min Rain = 0
KFLS 180205Z 15007KT 16/05 A2986 RMK A01 T01600049  RH  048%=      5-min Rain = 0
KFLS 180210Z 15008KT 16/05 A2986 RMK A01 T01620050  RH  048%=      5-min Rain = 0
KFLS 180215Z 15008KT 16/05 A2986 RMK A01 T01620051  RH  048%=      5-min Rain = 0
KFLS 180220Z 15009KT 16/05 A2986 RMK A01 T01640052  RH  048%=      5-min Rain = 0
KFLS 180225Z 15009KT 16/05 A2986 RMK A01 T01640052  RH  048%=      5-min Rain = 0
KFLS 180230Z 15009KT 17/05 A2986 RMK A01 T01650053  RH  048%=      5-min Rain = 0
KFLS 180235Z 15009KT 17/05 A2986 RMK A01 T01650054  RH  048%=      5-min Rain = 0
KFLS 180240Z 16009KT 17/05 A2986 RMK A01 T01660054  RH  048%=      5-min Rain = 0
KFLS 180245Z 16010KT 17/05 A2986 RMK A01 T01670054  RH  048%=      5-min Rain = 0
KFLS 180250Z 16010KT 17/05 A2986 RMK A01 T01660054  RH  048%=      5-min Rain = 0
KFLS 180255Z 15010KT 17/05 A2986 RMK A01 T01660054  RH  048%=      5-min Rain = 0
KFLS 180300Z 15011KT 17/06 A2986 RMK A01 T01680055  RH  048%=      5-min Rain = 0
KFLS 180305Z 15011KT 17/06 A2986 RMK A01 T01660055  RH  048%=      5-min Rain = 0
KFLS 180310Z 15011KT 17/06 A2986 RMK A01 T01660055  RH  048%=      5-min Rain = 0
KFLS 180315Z 15011KT 17/05 A2986 RMK A01 T01660054  RH  048%=      5-min Rain = 0
KFLS 180320Z 15011KT 16/05 A2986 RMK A01 T01640054  RH  049%=      5-min Rain = 0
KFLS 180325Z 16010KT 16/05 A2987 RMK A01 T01620054  RH  049%=      5-min Rain = 0
KFLS 180330Z 16012KT 16/05 A2987 RMK A01 T01620053  RH  049%=      5-min Rain = 0
KFLS 180335Z 16011KT 16/05 A2987 RMK A01 T01620052  RH  049%=      5-min Rain = 0
KFLS 180340Z 16012G18KT 16/05 A2987 RMK A01 T01620051  RH  048%=      5-min Rain = 0
KFLS 180345Z 16012KT 16/05 A2987 RMK A01 T01610050  RH  048%=      5-min Rain = 0
KFLS 180350Z 16012KT 16/05 A2987 RMK A01 T01600048  RH  048%=      5-min Rain = 0
KFLS 180355Z 16013KT 16/05 A2987 RMK A01 T01600047  RH  048%=      5-min Rain = 0
KFLS 180400Z 16012KT 16/05 A2987 RMK A01 T01580046  RH  048%=      5-min Rain = 0
KFLS 180405Z 16013KT 16/05 A2987 RMK A01 T01580045  RH  047%=      5-min Rain = 0
KFLS 180410Z 16012KT 16/04 A2987 RMK A01 T01560043  RH  047%=      5-min Rain = 0
KFLS 180415Z 16012KT 16/04 A2987 RMK A01 T01550041  RH  047%=      5-min Rain = 0
KFLS 180420Z 16013KT 15/04 A2986 RMK A01 T01540040  RH  047%=      5-min Rain = 0
KFLS 180425Z 16013KT 15/04 A2986 RMK A01 T01530038  RH  047%=      5-min Rain = 0
KFLS 180430Z 16012KT 15/04 A2986 RMK A01 T01520036  RH  046%=      5-min Rain = 0
KFLS 180435Z 16012KT 15/04 A2986 RMK A01 T01510035  RH  046%=      5-min Rain = 0
KFLS 180440Z 16012KT 15/03 A2986 RMK A01 T01500034  RH  046%=      5-min Rain = 0
KFLS 180445Z 16011KT 15/03 A2986 RMK A01 T01480033  RH  047%=      5-min Rain = 0
KFLS 180450Z 16011KT 15/03 A2986 RMK A01 T01470033  RH  047%=      5-min Rain = 0
KFLS 180455Z 16012KT 15/03 A2986 RMK A01 T01450032  RH  047%=      5-min Rain = 0

Page generated in 0.0188 seconds.